Delta Virtual Airport Information Service

Alicante Airport

ICAO: LEAL Country: Spain
Latitude: 38.2822 Longitude: -0.55815
Latest Arrival : DAC6996 (HECA-LEAL) Latest Departure : DAC6996 (LEAL-ENVA)


WX CaptureLIVE
Data provided by noaa.gov | Fetched at 04:10:14

METAR : LEAL 300830Z 29003KT 230V350 9999 FEW030 21/16 Q1017 NOSIG

TAF : LEAL 300500Z 3006/0106 34006KT 9999 FEW025 TX26/3012Z TN16/3006Z BECMG 3011/3013 18008KT BECMG 3016/3018 VRB04KT BECMG 0100/0102 27010KT


Runway Data for LEAL
Data provided by openaviationdata.com

Runway ID Mag Var Hdg Length Elevation Surface ILS Freq ILS Id ILS Slope
10 -2 102° 9806 ft 100 ft Asphalt 110.3 IAT 3
28 -2 282° 9806 ft 100 ft Asphalt -- -- --

Alicante Airport, Spain
Use only for reference purposes



Not for navigational purposes.